Kansas City, Missouri
Traffic Map
Current Weather Conditions
Kansas City, Missouri
Clear
Clear
52°
Feels Like: 52°
Wind Chill: 52° Ceiling: Unl
Heat Index: 52° Visibility: 10mi
Dew Point: 40° Wind: 0mph
Humidity: 63% Direction: ° ()
Pressure: 29.92in Gusts: 0mph
Raw Report DataKMKC 240854Z 00000KT 10SM CLR 11/04 A2992 RMK AO2 SLP130 T01110044 56012
Traffic Incident Summary
Active as of:
Severity:
Category:
InformationThere was an issue retrieving the traffic information for this location. Please try a different location or try again shortly.
Advertisements
Track Severe Weather on mobile